Emeraude Tri Race 2013

Results 1 - 50 of 352
Rank Bib Name Cat Gender Finish Time Swim Time T1 Time Bike Time T2 Time Run Time
123Stephan Bignet  MVEM04:07:4600:28:2700:00:4902:18:2500:01:0401:19:04
226Fabien Guerineau  MSEM04:09:2300:30:5100:01:1302:22:4900:00:5001:13:42
322Damien Favre-Felix  MVEM04:10:4800:33:4900:01:0602:12:5000:00:4701:22:18
4275Raoul Lavaut  MSEM04:12:1900:32:0100:00:5602:19:4400:00:4801:18:52
529Richard Manchon  MSEM04:14:3900:34:2200:01:2602:16:5200:00:5001:21:11
630Thomas Gazzera  MSEM04:15:2700:33:1900:01:2602:20:0100:01:0101:19:42
731Arnaud Constans  MVEM04:22:5400:34:2200:01:4202:21:5100:01:0801:23:53
828Regis Mahe  MSEM04:26:0300:39:3400:01:1202:25:0500:01:3901:18:36
9245Manuel Berthelot  MVEM04:28:2400:36:4500:01:0302:28:5300:00:4301:21:02
1032Charlie Bouthors  MSEM04:29:1900:34:5500:01:3602:30:1800:01:0801:21:24
11102Xavier Urien  MSEM04:32:2600:34:4400:01:4902:28:3400:00:5501:26:26
12314Yannick Roignant  MSEM04:32:4400:41:5500:01:3202:25:3700:01:0701:22:36
13236Emmanuel Jimenez  MVEM04:32:5500:34:2900:01:5102:26:5700:00:5701:28:42
1433Xavier Cesbron  MSEM04:34:0700:36:0600:01:3402:25:3700:01:1901:29:34
1594Yves Marole  MVEM04:36:1800:37:3300:01:5402:27:2100:01:1101:28:22
16151Arnaud Edus  MSEM04:37:2100:34:1700:01:2002:27:3100:01:5601:32:18
17235Serge Briand  MVEM04:37:3200:36:1000:01:3002:32:5800:00:5601:26:00
181Sabrina Monmarteau  FSEF04:37:4200:34:5200:01:2402:36:1300:00:5801:24:17
19323Raphael Dardeau  MSEM04:37:5600:41:3500:01:2702:29:0100:01:2101:24:34
20309Henry Moreau  MSEM04:39:0600:35:2100:01:3402:32:0500:01:3401:28:34
2169Gouill Alain Le  MVEM04:39:3800:36:1100:01:2502:29:5300:01:1201:30:59
22148Mathieu Aguerre  MVEM04:40:0300:35:3400:01:5502:38:0000:01:1301:23:23
23322Anthony Beyne  MSEM04:40:4900:38:4500:02:2602:29:0200:00:4801:29:50
24210Yann Martin  MVEM04:40:5500:38:4700:01:0602:38:4300:01:1801:21:03
25108Herve Maubian  MSEM04:41:5800:36:1100:01:4402:28:5000:01:1501:33:59
26369Steve Houanard  MSEM04:42:0700:40:2900:04:3202:20:1800:01:2601:35:24
2792Manour Anthony Le  MVEM04:42:1200:38:5000:01:2902:31:3600:01:3601:28:44
28400Jerome Suppi  MSEM04:42:1400:39:5100:03:1002:36:5500:01:0501:21:15
29233Denny Quelier  MVEM04:42:1900:36:1300:01:1802:30:0600:01:1101:33:33
30174Jean Baptiste Bienassis  MSEM04:42:3000:38:1400:02:0202:27:0600:02:1301:32:57
3160Julien Charles  MSEM04:43:0100:36:1000:02:2502:31:0800:02:3301:30:47
32387Franck Pencole  MSEM04:43:1600:38:2200:02:1702:30:0200:00:4601:31:50
33377Jan Arnaud Le  MSEM04:43:3500:39:2500:01:2002:21:5900:00:5201:40:01
34301Jean-Marie Mahe  MSEM04:43:5100:43:2200:02:1502:31:1900:01:1601:25:39
35134David Forest  MVEM04:44:0900:34:2600:02:3202:31:0300:01:2701:34:43
36184Benjamin Proux  MSEM04:44:1400:35:2800:01:1202:35:3600:00:5501:31:04
37146Alain Blanchard  MVEM04:44:1600:42:0300:01:5202:31:0200:01:2201:28:00
38259Eric Barre  MVEM04:45:3600:38:4300:01:1202:29:4800:01:0801:34:47
39177Olivier Pouliquen  MVEM04:46:4200:38:0000:01:5402:34:2100:01:0901:31:19
40112Xavier Vigouroux  MSEM04:46:4600:42:5100:01:5102:24:4600:00:5301:36:27
41120Emmanuel Plet  MVEM04:47:3600:37:1500:01:3702:31:5000:01:0701:35:48
42124Stephane Fontenelle  MSEM04:47:4000:41:5800:01:3702:34:5200:00:5201:28:22
43125Regis Garnier  MVEM04:47:5700:35:0900:01:2902:30:4800:01:1001:39:23
44305Nicolas Gratteau  MSEM04:48:2100:38:1300:01:3402:43:1800:01:1701:24:01
45208Fabien Letort  MSEM04:49:1900:38:2800:01:3102:28:4700:01:1201:39:24
4697Xavier Templier  MVEM04:49:4000:38:4300:02:1002:39:2800:00:5601:28:26
47308Gerard Corso  MVEM04:50:1300:38:5400:01:5002:37:1500:01:0801:31:08
48370Gwenael Huet  MSEM04:50:1700:35:5000:01:5302:36:2400:01:2701:34:45
49181Corre Romain Le  MSEM04:50:2000:40:0700:02:5402:26:2600:01:0601:39:49
50297Michel Dewaele  MVEM04:50:2700:39:1800:03:0302:29:0600:01:0701:37:55